sensor_id;sensor_type;location;lat;lon;timestamp;P1;durP1;ratioP1;P2;durP2;ratioP2
37931;SDS011;23758;42.640;23.302;2022-07-29T00:01:34;2.80;;;2.60;;
37931;SDS011;23758;42.640;23.302;2022-07-29T00:04:00;2.45;;;2.35;;
37931;SDS011;23758;42.640;23.302;2022-07-29T00:06:25;3.60;;;2.90;;
37931;SDS011;23758;42.640;23.302;2022-07-29T00:08:51;2.65;;;2.45;;
37931;SDS011;23758;42.640;23.302;2022-07-29T00:11:16;2.70;;;2.50;;
37931;SDS011;23758;42.640;23.302;2022-07-29T00:13:42;3.55;;;3.25;;
37931;SDS011;23758;42.640;23.302;2022-07-29T00:16:07;3.10;;;2.90;;
37931;SDS011;23758;42.640;23.302;2022-07-29T00:18:33;2.88;;;2.67;;
37931;SDS011;23758;42.640;23.302;2022-07-29T00:20:58;2.92;;;2.72;;
37931;SDS011;23758;42.640;23.302;2022-07-29T00:23:24;2.40;;;2.30;;
37931;SDS011;23758;42.640;23.302;2022-07-29T00:25:49;2.80;;;2.60;;
37931;SDS011;23758;42.640;23.302;2022-07-29T00:28:15;2.80;;;2.60;;
37931;SDS011;23758;42.640;23.302;2022-07-29T00:30:40;2.47;;;2.38;;
37931;SDS011;23758;42.640;23.302;2022-07-29T00:33:08;2.58;;;2.40;;
37931;SDS011;23758;42.640;23.302;2022-07-29T00:35:34;2.40;;;2.30;;
37931;SDS011;23758;42.640;23.302;2022-07-29T00:38:09;2.55;;;2.40;;
37931;SDS011;23758;42.640;23.302;2022-07-29T00:40:41;2.88;;;2.60;;
37931;SDS011;23758;42.640;23.302;2022-07-29T00:43:07;2.60;;;2.40;;
37931;SDS011;23758;42.640;23.302;2022-07-29T00:45:33;2.67;;;2.47;;
37931;SDS011;23758;42.640;23.302;2022-07-29T00:47:58;3.00;;;2.80;;
37931;SDS011;23758;42.640;23.302;2022-07-29T00:50:24;2.30;;;2.20;;
37931;SDS011;23758;42.640;23.302;2022-07-29T00:52:50;2.60;;;2.40;;
37931;SDS011;23758;42.640;23.302;2022-07-29T00:55:17;2.70;;;2.50;;
37931;SDS011;23758;42.640;23.302;2022-07-29T00:57:42;2.72;;;2.45;;
37931;SDS011;23758;42.640;23.302;2022-07-29T01:00:10;2.35;;;2.22;;
37931;SDS011;23758;42.640;23.302;2022-07-29T01:02:38;2.30;;;2.20;;
37931;SDS011;23758;42.640;23.302;2022-07-29T01:05:03;2.47;;;2.33;;
37931;SDS011;23758;42.640;23.302;2022-07-29T01:07:30;2.35;;;2.25;;
37931;SDS011;23758;42.640;23.302;2022-07-29T01:09:57;2.22;;;2.13;;
37931;SDS011;23758;42.640;23.302;2022-07-29T01:12:24;2.40;;;2.30;;
37931;SDS011;23758;42.640;23.302;2022-07-29T01:14:50;2.45;;;2.35;;
37931;SDS011;23758;42.640;23.302;2022-07-29T01:18:03;2.60;;;2.40;;
37931;SDS011;23758;42.640;23.302;2022-07-29T01:26:04;2.40;;;2.30;;
37931;SDS011;23758;42.640;23.302;2022-07-29T01:31:32;2.60;;;2.40;;
37931;SDS011;23758;42.640;23.302;2022-07-29T01:34:11;2.42;;;2.22;;
37931;SDS011;23758;42.640;23.302;2022-07-29T01:39:52;2.67;;;2.47;;
37931;SDS011;23758;42.640;23.302;2022-07-29T01:42:10;2.58;;;2.38;;
37931;SDS011;23758;42.640;23.302;2022-07-29T01:44:39;2.50;;;2.30;;
37931;SDS011;23758;42.640;23.302;2022-07-29T01:47:20;2.80;;;2.60;;
37931;SDS011;23758;42.640;23.302;2022-07-29T01:49:49;2.50;;;2.30;;
37931;SDS011;23758;42.640;23.302;2022-07-29T01:52:21;2.60;;;2.40;;
37931;SDS011;23758;42.640;23.302;2022-07-29T01:55:09;2.30;;;2.20;;
37931;SDS011;23758;42.640;23.302;2022-07-29T01:57:38;2.60;;;2.42;;
37931;SDS011;23758;42.640;23.302;2022-07-29T02:00:05;2.35;;;2.25;;
37931;SDS011;23758;42.640;23.302;2022-07-29T02:02:32;2.60;;;2.40;;
37931;SDS011;23758;42.640;23.302;2022-07-29T02:04:58;2.55;;;2.40;;
37931;SDS011;23758;42.640;23.302;2022-07-29T02:07:25;2.10;;;2.00;;
37931;SDS011;23758;42.640;23.302;2022-07-29T02:09:53;2.33;;;2.22;;
37931;SDS011;23758;42.640;23.302;2022-07-29T02:12:21;2.35;;;2.25;;
37931;SDS011;23758;42.640;23.302;2022-07-29T02:14:48;3.00;;;2.70;;
37931;SDS011;23758;42.640;23.302;2022-07-29T02:17:17;2.28;;;2.17;;
37931;SDS011;23758;42.640;23.302;2022-07-29T02:19:46;3.08;;;2.78;;
37931;SDS011;23758;42.640;23.302;2022-07-29T02:22:12;2.47;;;2.28;;
37931;SDS011;23758;42.640;23.302;2022-07-29T02:24:38;2.20;;;2.10;;
37931;SDS011;23758;42.640;23.302;2022-07-29T02:27:05;2.40;;;2.30;;
37931;SDS011;23758;42.640;23.302;2022-07-29T02:29:32;2.30;;;2.20;;
37931;SDS011;23758;42.640;23.302;2022-07-29T02:31:59;2.60;;;2.40;;
37931;SDS011;23758;42.640;23.302;2022-07-29T02:34:26;2.38;;;2.25;;
37931;SDS011;23758;42.640;23.302;2022-07-29T02:36:52;2.20;;;2.10;;
37931;SDS011;23758;42.640;23.302;2022-07-29T02:39:19;2.50;;;2.30;;
37931;SDS011;23758;42.640;23.302;2022-07-29T02:41:50;2.20;;;2.10;;
37931;SDS011;23758;42.640;23.302;2022-07-29T02:44:22;2.80;;;2.60;;
37931;SDS011;23758;42.640;23.302;2022-07-29T02:46:50;2.47;;;2.28;;
37931;SDS011;23758;42.640;23.302;2022-07-29T02:51:54;2.70;;;2.50;;
37931;SDS011;23758;42.640;23.302;2022-07-29T02:54:26;2.60;;;2.40;;
37931;SDS011;23758;42.640;23.302;2022-07-29T02:57:04;2.55;;;2.35;;
37931;SDS011;23758;42.640;23.302;2022-07-29T02:59:34;2.57;;;2.37;;
37931;SDS011;23758;42.640;23.302;2022-07-29T03:02:01;2.50;;;2.30;;
37931;SDS011;23758;42.640;23.302;2022-07-29T03:04:27;2.30;;;2.20;;
37931;SDS011;23758;42.640;23.302;2022-07-29T03:06:54;2.33;;;2.15;;
37931;SDS011;23758;42.640;23.302;2022-07-29T03:09:20;2.50;;;2.30;;
37931;SDS011;23758;42.640;23.302;2022-07-29T03:11:46;2.10;;;2.00;;
37931;SDS011;23758;42.640;23.302;2022-07-29T03:14:12;2.90;;;2.70;;
37931;SDS011;23758;42.640;23.302;2022-07-29T03:16:38;2.20;;;2.10;;
37931;SDS011;23758;42.640;23.302;2022-07-29T03:19:03;2.45;;;2.28;;
37931;SDS011;23758;42.640;23.302;2022-07-29T03:21:30;2.90;;;2.70;;
37931;SDS011;23758;42.640;23.302;2022-07-29T03:23:55;2.58;;;2.38;;
37931;SDS011;23758;42.640;23.302;2022-07-29T03:26:21;2.58;;;2.40;;
37931;SDS011;23758;42.640;23.302;2022-07-29T03:28:46;2.40;;;2.20;;
37931;SDS011;23758;42.640;23.302;2022-07-29T03:31:12;2.63;;;2.42;;
37931;SDS011;23758;42.640;23.302;2022-07-29T03:33:37;2.70;;;2.50;;
37931;SDS011;23758;42.640;23.302;2022-07-29T03:36:03;2.72;;;2.53;;
37931;SDS011;23758;42.640;23.302;2022-07-29T03:38:29;2.97;;;2.33;;
37931;SDS011;23758;42.640;23.302;2022-07-29T03:40:56;2.67;;;2.47;;
37931;SDS011;23758;42.640;23.302;2022-07-29T03:43:26;2.72;;;2.53;;
37931;SDS011;23758;42.640;23.302;2022-07-29T03:45:56;2.80;;;2.60;;
37931;SDS011;23758;42.640;23.302;2022-07-29T03:48:23;2.65;;;2.45;;
37931;SDS011;23758;42.640;23.302;2022-07-29T03:50:49;2.25;;;2.13;;
37931;SDS011;23758;42.640;23.302;2022-07-29T03:53:15;2.80;;;2.60;;
37931;SDS011;23758;42.640;23.302;2022-07-29T03:55:43;2.63;;;2.42;;
37931;SDS011;23758;42.640;23.302;2022-07-29T03:58:10;2.70;;;2.50;;
37931;SDS011;23758;42.640;23.302;2022-07-29T04:00:36;2.30;;;2.20;;
37931;SDS011;23758;42.640;23.302;2022-07-29T04:03:02;2.75;;;2.55;;
37931;SDS011;23758;42.640;23.302;2022-07-29T04:05:29;2.97;;;2.78;;
37931;SDS011;23758;42.640;23.302;2022-07-29T04:07:54;2.70;;;2.50;;
37931;SDS011;23758;42.640;23.302;2022-07-29T04:10:20;2.58;;;2.40;;
37931;SDS011;23758;42.640;23.302;2022-07-29T04:12:48;2.58;;;2.38;;
37931;SDS011;23758;42.640;23.302;2022-07-29T04:15:14;2.38;;;2.17;;
37931;SDS011;23758;42.640;23.302;2022-07-29T04:17:40;2.50;;;2.33;;
37931;SDS011;23758;42.640;23.302;2022-07-29T04:20:05;2.70;;;2.50;;
37931;SDS011;23758;42.640;23.302;2022-07-29T04:22:31;2.70;;;2.50;;
37931;SDS011;23758;42.640;23.302;2022-07-29T04:24:57;2.15;;;2.05;;
37931;SDS011;23758;42.640;23.302;2022-07-29T04:27:24;2.50;;;2.22;;
37931;SDS011;23758;42.640;23.302;2022-07-29T04:29:49;2.22;;;2.08;;
37931;SDS011;23758;42.640;23.302;2022-07-29T04:32:15;2.25;;;2.13;;
37931;SDS011;23758;42.640;23.302;2022-07-29T04:34:40;2.50;;;2.30;;
37931;SDS011;23758;42.640;23.302;2022-07-29T04:37:07;2.38;;;2.20;;
37931;SDS011;23758;42.640;23.302;2022-07-29T04:39:32;2.28;;;2.08;;
37931;SDS011;23758;42.640;23.302;2022-07-29T04:41:58;2.38;;;2.20;;
37931;SDS011;23758;42.640;23.302;2022-07-29T04:44:23;3.10;;;2.80;;
37931;SDS011;23758;42.640;23.302;2022-07-29T04:46:54;2.33;;;2.20;;
37931;SDS011;23758;42.640;23.302;2022-07-29T04:49:19;2.50;;;2.30;;
37931;SDS011;23758;42.640;23.302;2022-07-29T04:51:45;2.00;;;1.90;;
37931;SDS011;23758;42.640;23.302;2022-07-29T04:54:10;2.00;;;1.90;;
37931;SDS011;23758;42.640;23.302;2022-07-29T04:56:36;2.17;;;1.98;;
37931;SDS011;23758;42.640;23.302;2022-07-29T04:59:02;1.70;;;1.60;;
37931;SDS011;23758;42.640;23.302;2022-07-29T05:01:27;1.88;;;1.60;;
37931;SDS011;23758;42.640;23.302;2022-07-29T05:03:53;1.45;;;1.35;;
37931;SDS011;23758;42.640;23.302;2022-07-29T05:06:18;2.15;;;1.48;;
37931;SDS011;23758;42.640;23.302;2022-07-29T05:08:44;1.00;;;1.00;;
37931;SDS011;23758;42.640;23.302;2022-07-29T05:11:10;1.23;;;1.13;;
37931;SDS011;23758;42.640;23.302;2022-07-29T05:13:35;1.02;;;1.02;;
37931;SDS011;23758;42.640;23.302;2022-07-29T05:16:01;1.13;;;1.10;;
37931;SDS011;23758;42.640;23.302;2022-07-29T05:18:27;1.35;;;1.25;;
37931;SDS011;23758;42.640;23.302;2022-07-29T05:20:53;4.65;;;1.50;;
37931;SDS011;23758;42.640;23.302;2022-07-29T05:23:18;1.00;;;1.00;;
37931;SDS011;23758;42.640;23.302;2022-07-29T05:25:44;1.50;;;1.40;;
37931;SDS011;23758;42.640;23.302;2022-07-29T05:28:11;1.25;;;1.15;;
37931;SDS011;23758;42.640;23.302;2022-07-29T05:30:37;1.35;;;1.25;;
37931;SDS011;23758;42.640;23.302;2022-07-29T05:33:02;1.20;;;1.20;;
37931;SDS011;23758;42.640;23.302;2022-07-29T05:35:28;1.55;;;1.42;;
37931;SDS011;23758;42.640;23.302;2022-07-29T05:37:53;1.40;;;1.30;;
37931;SDS011;23758;42.640;23.302;2022-07-29T05:40:19;1.75;;;1.65;;
37931;SDS011;23758;42.640;23.302;2022-07-29T05:42:45;1.40;;;1.30;;
37931;SDS011;23758;42.640;23.302;2022-07-29T05:45:10;1.88;;;1.60;;
37931;SDS011;23758;42.640;23.302;2022-07-29T05:47:36;1.60;;;1.50;;
37931;SDS011;23758;42.640;23.302;2022-07-29T05:50:01;1.92;;;1.83;;
37931;SDS011;23758;42.640;23.302;2022-07-29T05:52:27;1.60;;;1.50;;
37931;SDS011;23758;42.640;23.302;2022-07-29T05:54:53;1.77;;;1.67;;
37931;SDS011;23758;42.640;23.302;2022-07-29T05:57:19;1.92;;;1.77;;
37931;SDS011;23758;42.640;23.302;2022-07-29T05:59:46;1.83;;;1.73;;
37931;SDS011;23758;42.640;23.302;2022-07-29T06:02:12;1.88;;;1.77;;
37931;SDS011;23758;42.640;23.302;2022-07-29T06:04:37;1.95;;;1.85;;
37931;SDS011;23758;42.640;23.302;2022-07-29T06:07:03;1.77;;;1.67;;
37931;SDS011;23758;42.640;23.302;2022-07-29T06:09:29;2.25;;;2.05;;
37931;SDS011;23758;42.640;23.302;2022-07-29T06:11:54;1.83;;;1.73;;
37931;SDS011;23758;42.640;23.302;2022-07-29T06:14:20;1.80;;;1.70;;
37931;SDS011;23758;42.640;23.302;2022-07-29T06:16:45;3.08;;;2.35;;
37931;SDS011;23758;42.640;23.302;2022-07-29T06:19:11;2.45;;;2.25;;
37931;SDS011;23758;42.640;23.302;2022-07-29T06:21:40;1.75;;;1.60;;
37931;SDS011;23758;42.640;23.302;2022-07-29T06:24:07;4.40;;;2.35;;
37931;SDS011;23758;42.640;23.302;2022-07-29T06:26:33;1.70;;;1.60;;
37931;SDS011;23758;42.640;23.302;2022-07-29T06:28:58;2.30;;;2.20;;
37931;SDS011;23758;42.640;23.302;2022-07-29T06:31:42;2.33;;;2.13;;
37931;SDS011;23758;42.640;23.302;2022-07-29T06:34:08;2.33;;;2.13;;
37931;SDS011;23758;42.640;23.302;2022-07-29T06:36:34;1.70;;;1.60;;
37931;SDS011;23758;42.640;23.302;2022-07-29T06:39:01;1.90;;;1.80;;
37931;SDS011;23758;42.640;23.302;2022-07-29T06:41:29;1.80;;;1.70;;
37931;SDS011;23758;42.640;23.302;2022-07-29T06:43:54;1.80;;;1.70;;
37931;SDS011;23758;42.640;23.302;2022-07-29T06:46:20;2.67;;;1.58;;
37931;SDS011;23758;42.640;23.302;2022-07-29T06:48:46;1.77;;;1.67;;
37931;SDS011;23758;42.640;23.302;2022-07-29T06:51:12;1.75;;;1.65;;
37931;SDS011;23758;42.640;23.302;2022-07-29T06:53:39;1.60;;;1.50;;
37931;SDS011;23758;42.640;23.302;2022-07-29T06:56:05;2.20;;;1.98;;
37931;SDS011;23758;42.640;23.302;2022-07-29T06:58:33;1.90;;;1.80;;
37931;SDS011;23758;42.640;23.302;2022-07-29T07:01:00;2.00;;;1.90;;
37931;SDS011;23758;42.640;23.302;2022-07-29T07:03:28;3.00;;;1.88;;
37931;SDS011;23758;42.640;23.302;2022-07-29T07:05:55;1.70;;;1.60;;
37931;SDS011;23758;42.640;23.302;2022-07-29T07:08:21;1.60;;;1.50;;
37931;SDS011;23758;42.640;23.302;2022-07-29T07:10:47;1.60;;;1.50;;
37931;SDS011;23758;42.640;23.302;2022-07-29T07:13:13;1.83;;;1.73;;
37931;SDS011;23758;42.640;23.302;2022-07-29T07:15:39;1.70;;;1.60;;
37931;SDS011;23758;42.640;23.302;2022-07-29T07:18:05;1.70;;;1.60;;
37931;SDS011;23758;42.640;23.302;2022-07-29T07:20:31;1.67;;;1.58;;
37931;SDS011;23758;42.640;23.302;2022-07-29T07:22:58;1.73;;;1.63;;
37931;SDS011;23758;42.640;23.302;2022-07-29T07:25:23;1.83;;;1.73;;
37931;SDS011;23758;42.640;23.302;2022-07-29T07:27:49;1.83;;;1.73;;
37931;SDS011;23758;42.640;23.302;2022-07-29T07:30:14;1.92;;;1.83;;
37931;SDS011;23758;42.640;23.302;2022-07-29T07:32:40;1.85;;;1.75;;
37931;SDS011;23758;42.640;23.302;2022-07-29T07:35:06;2.17;;;2.08;;
37931;SDS011;23758;42.640;23.302;2022-07-29T07:37:33;1.98;;;1.88;;
37931;SDS011;23758;42.640;23.302;2022-07-29T07:39:59;1.60;;;1.50;;
37931;SDS011;23758;42.640;23.302;2022-07-29T07:42:24;2.22;;;2.03;;
37931;SDS011;23758;42.640;23.302;2022-07-29T07:44:50;1.70;;;1.60;;
37931;SDS011;23758;42.640;23.302;2022-07-29T07:47:16;1.80;;;1.70;;
37931;SDS011;23758;42.640;23.302;2022-07-29T07:49:48;1.70;;;1.60;;
37931;SDS011;23758;42.640;23.302;2022-07-29T07:52:17;2.10;;;1.95;;
37931;SDS011;23758;42.640;23.302;2022-07-29T07:54:44;2.20;;;1.88;;
37931;SDS011;23758;42.640;23.302;2022-07-29T07:57:10;1.60;;;1.50;;
37931;SDS011;23758;42.640;23.302;2022-07-29T07:59:39;1.60;;;1.50;;
37931;SDS011;23758;42.640;23.302;2022-07-29T08:02:05;1.55;;;1.45;;
37931;SDS011;23758;42.640;23.302;2022-07-29T08:04:31;2.00;;;1.60;;
37931;SDS011;23758;42.640;23.302;2022-07-29T08:06:56;1.50;;;1.40;;
37931;SDS011;23758;42.640;23.302;2022-07-29T08:09:23;1.50;;;1.40;;
37931;SDS011;23758;42.640;23.302;2022-07-29T08:11:49;1.80;;;1.70;;
37931;SDS011;23758;42.640;23.302;2022-07-29T08:14:15;1.60;;;1.50;;
37931;SDS011;23758;42.640;23.302;2022-07-29T08:16:41;1.70;;;1.60;;
37931;SDS011;23758;42.640;23.302;2022-07-29T08:19:07;1.52;;;1.42;;
37931;SDS011;23758;42.640;23.302;2022-07-29T08:21:32;1.50;;;1.40;;
37931;SDS011;23758;42.640;23.302;2022-07-29T08:23:58;1.50;;;1.40;;
37931;SDS011;23758;42.640;23.302;2022-07-29T08:26:42;1.65;;;1.55;;
37931;SDS011;23758;42.640;23.302;2022-07-29T08:29:09;1.40;;;1.30;;
37931;SDS011;23758;42.640;23.302;2022-07-29T08:31:35;1.40;;;1.30;;
37931;SDS011;23758;42.640;23.302;2022-07-29T08:34:01;1.45;;;1.35;;
37931;SDS011;23758;42.640;23.302;2022-07-29T08:36:28;1.27;;;1.25;;
37931;SDS011;23758;42.640;23.302;2022-07-29T08:38:54;1.52;;;1.42;;
37931;SDS011;23758;42.640;23.302;2022-07-29T08:41:19;1.38;;;1.27;;
37931;SDS011;23758;42.640;23.302;2022-07-29T08:43:45;1.20;;;1.20;;
37931;SDS011;23758;42.640;23.302;2022-07-29T08:46:11;1.40;;;1.30;;
37931;SDS011;23758;42.640;23.302;2022-07-29T08:48:37;1.50;;;1.40;;
37931;SDS011;23758;42.640;23.302;2022-07-29T08:51:03;1.45;;;1.35;;
37931;SDS011;23758;42.640;23.302;2022-07-29T08:53:30;1.60;;;1.50;;
37931;SDS011;23758;42.640;23.302;2022-07-29T08:55:55;1.30;;;1.20;;
37931;SDS011;23758;42.640;23.302;2022-07-29T08:58:22;1.40;;;1.30;;
37931;SDS011;23758;42.640;23.302;2022-07-29T09:00:52;9.68;;;1.50;;
37931;SDS011;23758;42.640;23.302;2022-07-29T09:03:20;1.50;;;1.40;;
37931;SDS011;23758;42.640;23.302;2022-07-29T09:05:48;1.17;;;1.17;;
37931;SDS011;23758;42.640;23.302;2022-07-29T09:08:14;1.25;;;1.20;;
37931;SDS011;23758;42.640;23.302;2022-07-29T09:10:40;1.40;;;1.30;;
37931;SDS011;23758;42.640;23.302;2022-07-29T09:13:06;1.50;;;1.40;;
37931;SDS011;23758;42.640;23.302;2022-07-29T09:15:32;1.65;;;1.55;;
37931;SDS011;23758;42.640;23.302;2022-07-29T09:17:58;1.58;;;1.48;;
37931;SDS011;23758;42.640;23.302;2022-07-29T09:20:25;1.35;;;1.27;;
37931;SDS011;23758;42.640;23.302;2022-07-29T09:23:11;1.40;;;1.30;;
37931;SDS011;23758;42.640;23.302;2022-07-29T09:25:37;1.40;;;1.30;;
37931;SDS011;23758;42.640;23.302;2022-07-29T09:28:08;2.20;;;1.63;;
37931;SDS011;23758;42.640;23.302;2022-07-29T09:30:56;1.30;;;1.25;;
37931;SDS011;23758;42.640;23.302;2022-07-29T09:33:24;1.50;;;1.40;;
37931;SDS011;23758;42.640;23.302;2022-07-29T09:36:03;1.45;;;1.35;;
37931;SDS011;23758;42.640;23.302;2022-07-29T09:38:31;1.45;;;1.35;;
37931;SDS011;23758;42.640;23.302;2022-07-29T09:40:57;1.50;;;1.40;;
37931;SDS011;23758;42.640;23.302;2022-07-29T09:43:23;1.60;;;1.50;;
37931;SDS011;23758;42.640;23.302;2022-07-29T09:45:49;1.40;;;1.30;;
37931;SDS011;23758;42.640;23.302;2022-07-29T09:48:16;1.50;;;1.40;;
37931;SDS011;23758;42.640;23.302;2022-07-29T09:50:44;1.50;;;1.40;;
37931;SDS011;23758;42.640;23.302;2022-07-29T09:53:11;1.50;;;1.40;;
37931;SDS011;23758;42.640;23.302;2022-07-29T09:55:49;1.45;;;1.35;;
37931;SDS011;23758;42.640;23.302;2022-07-29T09:58:16;1.55;;;1.45;;
37931;SDS011;23758;42.640;23.302;2022-07-29T10:00:45;2.63;;;1.40;;
37931;SDS011;23758;42.640;23.302;2022-07-29T10:03:14;1.70;;;1.60;;
37931;SDS011;23758;42.640;23.302;2022-07-29T10:05:40;1.45;;;1.35;;
37931;SDS011;23758;42.640;23.302;2022-07-29T10:08:07;1.30;;;1.20;;
37931;SDS011;23758;42.640;23.302;2022-07-29T10:10:37;1.55;;;1.45;;
37931;SDS011;23758;42.640;23.302;2022-07-29T10:13:10;1.50;;;1.40;;
37931;SDS011;23758;42.640;23.302;2022-07-29T10:15:40;1.20;;;1.20;;
37931;SDS011;23758;42.640;23.302;2022-07-29T10:18:08;1.30;;;1.25;;
37931;SDS011;23758;42.640;23.302;2022-07-29T10:20:35;1.50;;;1.40;;
37931;SDS011;23758;42.640;23.302;2022-07-29T10:23:02;1.58;;;1.48;;
37931;SDS011;23758;42.640;23.302;2022-07-29T10:25:27;1.65;;;1.55;;
37931;SDS011;23758;42.640;23.302;2022-07-29T10:27:53;1.42;;;1.33;;
37931;SDS011;23758;42.640;23.302;2022-07-29T10:30:20;1.60;;;1.50;;
37931;SDS011;23758;42.640;23.302;2022-07-29T10:46:25;1.60;;;1.50;;
37931;SDS011;23758;42.640;23.302;2022-07-29T10:49:08;1.60;;;1.50;;
37931;SDS011;23758;42.640;23.302;2022-07-29T10:54:16;1.52;;;1.42;;
37931;SDS011;23758;42.640;23.302;2022-07-29T10:56:44;1.73;;;1.35;;
37931;SDS011;23758;42.640;23.302;2022-07-29T11:01:41;1.70;;;1.60;;
37931;SDS011;23758;42.640;23.302;2022-07-29T11:04:07;1.50;;;1.40;;
37931;SDS011;23758;42.640;23.302;2022-07-29T11:09:27;1.40;;;1.30;;
37931;SDS011;23758;42.640;23.302;2022-07-29T11:11:54;1.20;;;1.20;;
37931;SDS011;23758;42.640;23.302;2022-07-29T11:17:16;1.52;;;1.42;;
37931;SDS011;23758;42.640;23.302;2022-07-29T11:19:42;2.72;;;1.65;;
37931;SDS011;23758;42.640;23.302;2022-07-29T11:22:08;1.50;;;1.40;;
37931;SDS011;23758;42.640;23.302;2022-07-29T11:24:35;1.33;;;1.23;;
37931;SDS011;23758;42.640;23.302;2022-07-29T11:27:14;1.23;;;1.20;;
37931;SDS011;23758;42.640;23.302;2022-07-29T11:29:48;1.40;;;1.30;;
37931;SDS011;23758;42.640;23.302;2022-07-29T11:32:16;1.50;;;1.40;;
37931;SDS011;23758;42.640;23.302;2022-07-29T11:34:45;1.40;;;1.30;;
37931;SDS011;23758;42.640;23.302;2022-07-29T11:37:14;1.33;;;1.25;;
37931;SDS011;23758;42.640;23.302;2022-07-29T11:39:41;1.40;;;1.30;;
37931;SDS011;23758;42.640;23.302;2022-07-29T11:45:04;1.25;;;1.20;;
37931;SDS011;23758;42.640;23.302;2022-07-29T11:47:31;1.40;;;1.30;;
37931;SDS011;23758;42.640;23.302;2022-07-29T11:50:08;1.30;;;1.20;;
37931;SDS011;23758;42.640;23.302;2022-07-29T11:52:41;1.25;;;1.20;;
37931;SDS011;23758;42.640;23.302;2022-07-29T11:55:11;2.63;;;2.42;;
37931;SDS011;23758;42.640;23.302;2022-07-29T11:57:57;1.58;;;1.48;;
37931;SDS011;23758;42.640;23.302;2022-07-29T12:00:32;1.48;;;1.38;;
37931;SDS011;23758;42.640;23.302;2022-07-29T12:03:00;1.10;;;1.10;;
37931;SDS011;23758;42.640;23.302;2022-07-29T12:05:33;1.40;;;1.30;;
37931;SDS011;23758;42.640;23.302;2022-07-29T12:08:04;1.10;;;1.10;;
37931;SDS011;23758;42.640;23.302;2022-07-29T12:10:41;1.23;;;1.13;;
37931;SDS011;23758;42.640;23.302;2022-07-29T12:13:08;1.23;;;1.17;;
37931;SDS011;23758;42.640;23.302;2022-07-29T12:15:35;1.40;;;1.30;;
37931;SDS011;23758;42.640;23.302;2022-07-29T12:18:19;1.40;;;1.30;;
37931;SDS011;23758;42.640;23.302;2022-07-29T12:20:46;1.30;;;1.20;;
37931;SDS011;23758;42.640;23.302;2022-07-29T12:23:12;1.50;;;1.40;;
37931;SDS011;23758;42.640;23.302;2022-07-29T12:25:39;1.40;;;1.30;;
37931;SDS011;23758;42.640;23.302;2022-07-29T12:28:07;1.10;;;1.10;;
37931;SDS011;23758;42.640;23.302;2022-07-29T12:30:39;1.30;;;1.20;;
37931;SDS011;23758;42.640;23.302;2022-07-29T12:33:13;1.10;;;1.10;;
37931;SDS011;23758;42.640;23.302;2022-07-29T12:35:40;1.20;;;1.17;;
37931;SDS011;23758;42.640;23.302;2022-07-29T12:38:09;1.40;;;1.30;;
37931;SDS011;23758;42.640;23.302;2022-07-29T12:40:36;1.50;;;1.40;;
37931;SDS011;23758;42.640;23.302;2022-07-29T12:43:08;1.20;;;1.17;;
37931;SDS011;23758;42.640;23.302;2022-07-29T12:45:35;1.33;;;1.23;;
37931;SDS011;23758;42.640;23.302;2022-07-29T12:48:02;1.48;;;1.38;;
37931;SDS011;23758;42.640;23.302;2022-07-29T12:50:28;2.28;;;1.48;;
37931;SDS011;23758;42.640;23.302;2022-07-29T12:52:54;1.63;;;1.42;;
37931;SDS011;23758;42.640;23.302;2022-07-29T12:58:07;1.48;;;1.38;;
37931;SDS011;23758;42.640;23.302;2022-07-29T13:00:33;1.23;;;1.13;;
37931;SDS011;23758;42.640;23.302;2022-07-29T13:02:59;1.33;;;1.23;;
37931;SDS011;23758;42.640;23.302;2022-07-29T13:08:24;1.50;;;1.40;;
37931;SDS011;23758;42.640;23.302;2022-07-29T13:10:50;1.50;;;1.40;;
37931;SDS011;23758;42.640;23.302;2022-07-29T13:13:15;1.25;;;1.15;;
37931;SDS011;23758;42.640;23.302;2022-07-29T13:15:42;2.97;;;1.77;;
37931;SDS011;23758;42.640;23.302;2022-07-29T13:20:58;1.25;;;1.20;;
37931;SDS011;23758;42.640;23.302;2022-07-29T13:23:35;2.28;;;1.60;;
37931;SDS011;23758;42.640;23.302;2022-07-29T13:26:08;1.77;;;1.67;;
37931;SDS011;23758;42.640;23.302;2022-07-29T13:28:36;1.40;;;1.30;;
37931;SDS011;23758;42.640;23.302;2022-07-29T13:31:02;1.30;;;1.20;;
37931;SDS011;23758;42.640;23.302;2022-07-29T13:33:27;1.27;;;1.20;;
37931;SDS011;23758;42.640;23.302;2022-07-29T13:35:53;1.40;;;1.30;;
37931;SDS011;23758;42.640;23.302;2022-07-29T13:38:18;1.30;;;1.20;;
37931;SDS011;23758;42.640;23.302;2022-07-29T13:40:44;1.05;;;1.05;;
37931;SDS011;23758;42.640;23.302;2022-07-29T13:43:10;1.40;;;1.30;;
37931;SDS011;23758;42.640;23.302;2022-07-29T13:45:36;1.25;;;1.15;;
37931;SDS011;23758;42.640;23.302;2022-07-29T13:48:02;1.20;;;1.13;;
37931;SDS011;23758;42.640;23.302;2022-07-29T13:50:27;1.45;;;1.35;;
37931;SDS011;23758;42.640;23.302;2022-07-29T13:52:53;1.15;;;1.15;;
37931;SDS011;23758;42.640;23.302;2022-07-29T13:55:18;1.13;;;1.13;;
37931;SDS011;23758;42.640;23.302;2022-07-29T13:57:44;1.10;;;1.10;;
37931;SDS011;23758;42.640;23.302;2022-07-29T14:00:10;1.10;;;1.10;;
37931;SDS011;23758;42.640;23.302;2022-07-29T14:02:36;1.40;;;1.30;;
37931;SDS011;23758;42.640;23.302;2022-07-29T14:05:03;1.55;;;1.45;;
37931;SDS011;23758;42.640;23.302;2022-07-29T14:07:30;1.30;;;1.20;;
37931;SDS011;23758;42.640;23.302;2022-07-29T14:09:55;1.10;;;1.10;;
37931;SDS011;23758;42.640;23.302;2022-07-29T14:12:21;1.45;;;1.35;;
37931;SDS011;23758;42.640;23.302;2022-07-29T14:14:47;1.33;;;1.23;;
37931;SDS011;23758;42.640;23.302;2022-07-29T14:17:13;1.52;;;1.42;;
37931;SDS011;23758;42.640;23.302;2022-07-29T14:19:39;1.40;;;1.30;;
37931;SDS011;23758;42.640;23.302;2022-07-29T14:22:05;1.50;;;1.40;;
37931;SDS011;23758;42.640;23.302;2022-07-29T14:24:31;1.58;;;1.48;;
37931;SDS011;23758;42.640;23.302;2022-07-29T14:26:57;6.20;;;1.45;;
37931;SDS011;23758;42.640;23.302;2022-07-29T14:29:22;1.42;;;1.33;;
37931;SDS011;23758;42.640;23.302;2022-07-29T14:31:48;1.40;;;1.30;;
37931;SDS011;23758;42.640;23.302;2022-07-29T14:34:13;1.30;;;1.20;;
37931;SDS011;23758;42.640;23.302;2022-07-29T14:36:40;1.30;;;1.20;;
37931;SDS011;23758;42.640;23.302;2022-07-29T14:39:06;1.40;;;1.30;;
37931;SDS011;23758;42.640;23.302;2022-07-29T14:41:31;2.20;;;1.45;;
37931;SDS011;23758;42.640;23.302;2022-07-29T14:43:57;1.27;;;1.20;;
37931;SDS011;23758;42.640;23.302;2022-07-29T14:46:25;1.02;;;1.02;;
37931;SDS011;23758;42.640;23.302;2022-07-29T14:48:51;1.15;;;1.15;;
37931;SDS011;23758;42.640;23.302;2022-07-29T14:51:17;1.50;;;1.38;;
37931;SDS011;23758;42.640;23.302;2022-07-29T14:53:42;1.50;;;1.40;;
37931;SDS011;23758;42.640;23.302;2022-07-29T14:56:08;1.10;;;1.10;;
37931;SDS011;23758;42.640;23.302;2022-07-29T14:58:33;1.20;;;1.20;;
37931;SDS011;23758;42.640;23.302;2022-07-29T15:00:59;1.10;;;1.10;;
37931;SDS011;23758;42.640;23.302;2022-07-29T15:03:25;1.20;;;1.13;;
37931;SDS011;23758;42.640;23.302;2022-07-29T15:05:52;1.20;;;1.20;;
37931;SDS011;23758;42.640;23.302;2022-07-29T15:08:18;1.10;;;1.10;;
37931;SDS011;23758;42.640;23.302;2022-07-29T15:10:43;1.10;;;1.10;;
37931;SDS011;23758;42.640;23.302;2022-07-29T15:13:09;1.30;;;1.20;;
37931;SDS011;23758;42.640;23.302;2022-07-29T15:15:34;1.50;;;1.40;;
37931;SDS011;23758;42.640;23.302;2022-07-29T15:18:00;1.40;;;1.30;;
37931;SDS011;23758;42.640;23.302;2022-07-29T15:20:26;1.48;;;1.38;;
37931;SDS011;23758;42.640;23.302;2022-07-29T15:22:52;4.22;;;1.50;;
37931;SDS011;23758;42.640;23.302;2022-07-29T15:25:18;1.42;;;1.27;;